This is the latest recevied weather packets stored in our database for station/object WC4PEM-14. If no packets are shown the sender has not sent any weather packets the latest 1 day(s).
| Time | Temp. | Humidity | Pressure | Rain* | Wind** | Luminosity | Snow |
|---|---|---|---|---|---|---|---|
| 1778030705 | 23.89° C | 64% | 1015.2 hPa | 0 mm | 2.24 m/s, 98° | - | - |
| 1778030584 | 23.89° C | 64% | 1015.2 hPa | 0 mm | 2.24 m/s, 98° | - | - |
| 1778030410 | 23.89° C | 63% | 1015.2 hPa | 0 mm | 1.79 m/s, 98° | - | - |
| 1778030284 | 23.89° C | 63% | 1015.2 hPa | 0 mm | 1.79 m/s, 98° | - | - |
| 1778030201 | 24.44° C | 63% | 1015.2 hPa | 0 mm | 1.79 m/s, 101° | - | - |
| 1778029985 | 24.44° C | 63% | 1015.2 hPa | 0 mm | 1.79 m/s, 101° | - | - |
| 1778029832 | 24.44° C | 62% | 1015.3 hPa | 0 mm | 2.24 m/s, 104° | - | - |
| 1778029684 | 24.44° C | 62% | 1015.3 hPa | 0 mm | 2.24 m/s, 104° | - | - |
| 1778029385 | 24.44° C | 62% | 1015.1 hPa | 0 mm | 2.24 m/s, 98° | - | - |
| 1778029230 | 24.44° C | 62% | 1015 hPa | 0 mm | 2.24 m/s, 96° | - | - |
| 1778029085 | 24.44° C | 62% | 1015 hPa | 0 mm | 2.24 m/s, 96° | - | - |
| 1778028785 | 24.44° C | 61% | 1014.8 hPa | 0 mm | 2.68 m/s, 96° | - | - |
| 1778028522 | 25° C | 60% | 1014.7 hPa | 0 mm | 3.13 m/s, 98° | - | - |
| 1778028485 | 24.44° C | 61% | 1014.9 hPa | 0 mm | 2.68 m/s, 93° | - | - |
| 1778028185 | 25° C | 60% | 1014.7 hPa | 0 mm | 3.13 m/s, 98° | - | - |
| 1778028094 | 25° C | 60% | 1014.6 hPa | 0 mm | 3.13 m/s, 98° | - | - |
| 1778027885 | 25° C | 60% | 1014.6 hPa | 0 mm | 3.13 m/s, 98° | - | - |
| 1778027767 | 25° C | 60% | 1014.5 hPa | 0 mm | 3.13 m/s, 93° | - | - |
| 1778027585 | 25° C | 60% | 1014.5 hPa | 0 mm | 3.13 m/s, 93° | - | - |
| 1778027285 | 25° C | 60% | 1014.6 hPa | 0 mm | 3.58 m/s, 98° | - | - |
| 1778026985 | 25° C | 59% | 1014.5 hPa | 0 mm | 3.58 m/s, 96° | - | - |
| 1778026813 | 25.56° C | 59% | 1014.4 hPa | 0 mm | 3.13 m/s, 95° | - | - |
| 1778026685 | 25.56° C | 59% | 1014.5 hPa | 0 mm | 3.13 m/s, 93° | - | - |
| 1778026385 | 25.56° C | 59% | 1014.4 hPa | 0 mm | 3.13 m/s, 95° | - | - |
| 1778026239 | 26.11° C | 58% | 1014.3 hPa | 0 mm | 3.13 m/s, 93° | - | - |
* Rain latest hour (hover to see other rain measurements)
** Current wind speed in m/s (hover to see current wind gust speed)